sensor_id;sensor_type;location;lat;lon;timestamp;pressure;altitude;pressure_sealevel;temperature;humidity
22647;BME280;11490;42.726;23.268;2023-04-15T00:01:18;94468.84;;;9.67;85.34
22647;BME280;11490;42.726;23.268;2023-04-15T00:03:44;94471.44;;;9.61;85.41
22647;BME280;11490;42.726;23.268;2023-04-15T00:06:10;94460.31;;;9.43;86.64
22647;BME280;11490;42.726;23.268;2023-04-15T00:08:35;94463.00;;;9.43;86.33
22647;BME280;11490;42.726;23.268;2023-04-15T00:11:01;94471.16;;;9.58;85.78
22647;BME280;11490;42.726;23.268;2023-04-15T00:13:29;94469.78;;;9.12;86.36
22647;BME280;11490;42.726;23.268;2023-04-15T00:15:55;94459.25;;;9.00;88.36
22647;BME280;11490;42.726;23.268;2023-04-15T00:18:20;94462.91;;;9.16;87.57
22647;BME280;11490;42.726;23.268;2023-04-15T00:20:46;94451.47;;;9.37;88.79
22647;BME280;11490;42.726;23.268;2023-04-15T00:23:11;94457.25;;;9.29;87.72
22647;BME280;11490;42.726;23.268;2023-04-15T00:25:37;94443.56;;;9.20;87.43
22647;BME280;11490;42.726;23.268;2023-04-15T00:28:03;94465.94;;;9.46;88.17
22647;BME280;11490;42.726;23.268;2023-04-15T00:30:28;94473.00;;;9.57;88.39
22647;BME280;11490;42.726;23.268;2023-04-15T00:32:54;94477.28;;;9.85;86.74
22647;BME280;11490;42.726;23.268;2023-04-15T00:35:19;94476.84;;;9.93;85.35
22647;BME280;11490;42.726;23.268;2023-04-15T00:37:45;94481.91;;;9.95;85.13
22647;BME280;11490;42.726;23.268;2023-04-15T00:40:12;94482.66;;;9.20;86.41
22647;BME280;11490;42.726;23.268;2023-04-15T00:42:38;94476.00;;;9.01;89.08
22647;BME280;11490;42.726;23.268;2023-04-15T00:45:04;94469.28;;;9.15;86.98
22647;BME280;11490;42.726;23.268;2023-04-15T00:47:30;94468.75;;;9.13;87.75
22647;BME280;11490;42.726;23.268;2023-04-15T00:49:57;94449.06;;;8.75;87.76
22647;BME280;11490;42.726;23.268;2023-04-15T00:52:23;94460.25;;;9.16;89.44
22647;BME280;11490;42.726;23.268;2023-04-15T00:54:48;94467.13;;;9.55;86.28
22647;BME280;11490;42.726;23.268;2023-04-15T00:57:15;94463.72;;;9.38;87.55
22647;BME280;11490;42.726;23.268;2023-04-15T00:59:41;94470.34;;;9.57;86.20
22647;BME280;11490;42.726;23.268;2023-04-15T01:02:06;94469.41;;;9.03;88.76
22647;BME280;11490;42.726;23.268;2023-04-15T01:04:32;94464.75;;;9.37;88.65
22647;BME280;11490;42.726;23.268;2023-04-15T01:06:57;94455.25;;;9.41;88.29
22647;BME280;11490;42.726;23.268;2023-04-15T01:09:23;94466.75;;;9.25;88.65
22647;BME280;11490;42.726;23.268;2023-04-15T01:11:48;94469.91;;;9.22;89.67
22647;BME280;11490;42.726;23.268;2023-04-15T01:14:14;94470.41;;;8.97;91.03
22647;BME280;11490;42.726;23.268;2023-04-15T01:16:40;94479.53;;;9.06;90.23
22647;BME280;11490;42.726;23.268;2023-04-15T01:19:07;94481.06;;;9.19;89.67
22647;BME280;11490;42.726;23.268;2023-04-15T01:21:38;94471.88;;;9.53;87.24
22647;BME280;11490;42.726;23.268;2023-04-15T01:24:08;94477.16;;;9.48;88.83
22647;BME280;11490;42.726;23.268;2023-04-15T01:26:43;94476.75;;;9.61;87.06
22647;BME280;11490;42.726;23.268;2023-04-15T01:29:09;94475.78;;;9.68;86.27
22647;BME280;11490;42.726;23.268;2023-04-15T01:31:34;94471.50;;;9.67;86.22
22647;BME280;11490;42.726;23.268;2023-04-15T01:34:00;94480.59;;;9.71;85.24
22647;BME280;11490;42.726;23.268;2023-04-15T01:36:26;94474.16;;;9.23;88.50
22647;BME280;11490;42.726;23.268;2023-04-15T01:38:52;94468.38;;;9.26;88.63
22647;BME280;11490;42.726;23.268;2023-04-15T01:41:23;94480.00;;;9.20;87.38
22647;BME280;11490;42.726;23.268;2023-04-15T01:43:49;94484.31;;;8.49;90.26
22647;BME280;11490;42.726;23.268;2023-04-15T01:46:15;94480.09;;;8.20;91.63
22647;BME280;11490;42.726;23.268;2023-04-15T01:48:41;94483.81;;;8.52;92.14
22647;BME280;11490;42.726;23.268;2023-04-15T01:51:06;94481.53;;;8.77;90.13
22647;BME280;11490;42.726;23.268;2023-04-15T01:53:32;94482.34;;;8.61;89.33
22647;BME280;11490;42.726;23.268;2023-04-15T01:55:58;94472.06;;;8.65;91.24
22647;BME280;11490;42.726;23.268;2023-04-15T01:58:23;94469.09;;;8.83;89.86
22647;BME280;11490;42.726;23.268;2023-04-15T02:00:49;94475.59;;;8.37;91.28
22647;BME280;11490;42.726;23.268;2023-04-15T02:03:14;94481.88;;;8.31;94.23
22647;BME280;11490;42.726;23.268;2023-04-15T02:05:40;94486.72;;;8.51;92.22
22647;BME280;11490;42.726;23.268;2023-04-15T02:08:05;94490.56;;;8.76;90.03
22647;BME280;11490;42.726;23.268;2023-04-15T02:10:30;94489.44;;;8.39;92.44
22647;BME280;11490;42.726;23.268;2023-04-15T02:12:56;94497.38;;;8.22;92.50
22647;BME280;11490;42.726;23.268;2023-04-15T02:15:21;94495.38;;;7.84;95.53
22647;BME280;11490;42.726;23.268;2023-04-15T02:17:47;94500.03;;;7.77;97.35
22647;BME280;11490;42.726;23.268;2023-04-15T02:20:17;94490.44;;;8.04;96.31
22647;BME280;11490;42.726;23.268;2023-04-15T02:22:43;94490.06;;;8.13;94.76
22647;BME280;11490;42.726;23.268;2023-04-15T02:25:08;94472.59;;;8.17;93.45
22647;BME280;11490;42.726;23.268;2023-04-15T02:27:36;94483.03;;;8.52;90.03
22647;BME280;11490;42.726;23.268;2023-04-15T02:30:02;94493.16;;;8.38;90.30
22647;BME280;11490;42.726;23.268;2023-04-15T02:32:28;94489.63;;;8.49;89.63
22647;BME280;11490;42.726;23.268;2023-04-15T02:34:53;94491.25;;;8.50;88.82
22647;BME280;11490;42.726;23.268;2023-04-15T02:37:19;94495.41;;;8.46;87.80
22647;BME280;11490;42.726;23.268;2023-04-15T02:39:45;94505.81;;;8.47;86.45
22647;BME280;11490;42.726;23.268;2023-04-15T02:42:10;94512.97;;;8.47;86.21
22647;BME280;11490;42.726;23.268;2023-04-15T02:44:36;94490.72;;;8.36;86.12
22647;BME280;11490;42.726;23.268;2023-04-15T02:47:01;94505.56;;;8.49;85.26
22647;BME280;11490;42.726;23.268;2023-04-15T02:49:28;94501.63;;;8.06;87.47
22647;BME280;11490;42.726;23.268;2023-04-15T02:51:55;94494.53;;;7.67;89.18
22647;BME280;11490;42.726;23.268;2023-04-15T02:54:22;94505.91;;;7.79;89.06
22647;BME280;11490;42.726;23.268;2023-04-15T02:56:48;94496.81;;;7.75;88.70
22647;BME280;11490;42.726;23.268;2023-04-15T02:59:14;94506.78;;;7.96;87.49
22647;BME280;11490;42.726;23.268;2023-04-15T03:01:39;94507.50;;;7.52;90.63
22647;BME280;11490;42.726;23.268;2023-04-15T03:04:05;94500.50;;;7.46;89.28
22647;BME280;11490;42.726;23.268;2023-04-15T03:06:33;94508.63;;;7.27;90.23
22647;BME280;11490;42.726;23.268;2023-04-15T03:08:58;94511.16;;;7.22;92.93
22647;BME280;11490;42.726;23.268;2023-04-15T03:11:25;94517.75;;;7.60;90.31
22647;BME280;11490;42.726;23.268;2023-04-15T03:13:52;94509.75;;;7.31;89.13
22647;BME280;11490;42.726;23.268;2023-04-15T03:16:17;94519.84;;;6.94;92.50
22647;BME280;11490;42.726;23.268;2023-04-15T03:18:43;94516.94;;;7.19;91.46
22647;BME280;11490;42.726;23.268;2023-04-15T03:21:08;94508.28;;;7.24;90.14
22647;BME280;11490;42.726;23.268;2023-04-15T03:23:33;94503.91;;;7.18;91.05
22647;BME280;11490;42.726;23.268;2023-04-15T03:26:03;94521.03;;;7.50;89.15
22647;BME280;11490;42.726;23.268;2023-04-15T03:28:29;94530.16;;;7.43;87.93
22647;BME280;11490;42.726;23.268;2023-04-15T03:30:55;94542.00;;;7.52;88.34
22647;BME280;11490;42.726;23.268;2023-04-15T03:33:20;94543.22;;;7.32;87.45
22647;BME280;11490;42.726;23.268;2023-04-15T03:35:46;94541.59;;;7.31;87.49
22647;BME280;11490;42.726;23.268;2023-04-15T03:38:11;94555.63;;;7.55;87.89
22647;BME280;11490;42.726;23.268;2023-04-15T03:40:40;94553.28;;;7.59;87.54
22647;BME280;11490;42.726;23.268;2023-04-15T03:43:05;94560.25;;;7.37;88.23
22647;BME280;11490;42.726;23.268;2023-04-15T03:45:31;94550.81;;;7.41;87.64
22647;BME280;11490;42.726;23.268;2023-04-15T03:47:57;94565.59;;;7.02;89.97
22647;BME280;11490;42.726;23.268;2023-04-15T03:50:22;94572.50;;;6.68;93.72
22647;BME280;11490;42.726;23.268;2023-04-15T03:52:47;94563.50;;;6.69;94.11
22647;BME280;11490;42.726;23.268;2023-04-15T03:55:13;94571.38;;;6.87;94.00
22647;BME280;11490;42.726;23.268;2023-04-15T03:57:39;94560.63;;;6.58;92.92
22647;BME280;11490;42.726;23.268;2023-04-15T04:00:05;94556.34;;;6.34;96.53
22647;BME280;11490;42.726;23.268;2023-04-15T04:02:31;94560.75;;;6.64;93.85
22647;BME280;11490;42.726;23.268;2023-04-15T04:04:56;94554.06;;;6.49;96.42
22647;BME280;11490;42.726;23.268;2023-04-15T04:07:22;94565.16;;;6.93;92.24
22647;BME280;11490;42.726;23.268;2023-04-15T04:09:48;94569.53;;;6.87;90.12
22647;BME280;11490;42.726;23.268;2023-04-15T04:12:13;94557.66;;;7.02;90.21
22647;BME280;11490;42.726;23.268;2023-04-15T04:14:39;94549.13;;;6.88;89.09
22647;BME280;11490;42.726;23.268;2023-04-15T04:17:04;94565.59;;;6.67;90.99
22647;BME280;11490;42.726;23.268;2023-04-15T04:19:29;94579.31;;;6.99;90.43
22647;BME280;11490;42.726;23.268;2023-04-15T04:21:55;94560.97;;;6.74;91.17
22647;BME280;11490;42.726;23.268;2023-04-15T04:24:20;94566.72;;;6.47;95.10
22647;BME280;11490;42.726;23.268;2023-04-15T04:26:46;94571.75;;;6.26;97.60
22647;BME280;11490;42.726;23.268;2023-04-15T04:29:11;94569.06;;;6.79;96.13
22647;BME280;11490;42.726;23.268;2023-04-15T04:31:37;94583.59;;;7.11;93.18
22647;BME280;11490;42.726;23.268;2023-04-15T04:34:02;94582.19;;;6.97;93.78
22647;BME280;11490;42.726;23.268;2023-04-15T04:36:28;94555.91;;;7.07;92.61
22647;BME280;11490;42.726;23.268;2023-04-15T04:38:53;94584.13;;;7.48;91.74
22647;BME280;11490;42.726;23.268;2023-04-15T04:41:18;94569.75;;;7.72;90.48
22647;BME280;11490;42.726;23.268;2023-04-15T04:43:44;94582.81;;;8.02;89.44
22647;BME280;11490;42.726;23.268;2023-04-15T04:46:09;94592.91;;;8.17;88.84
22647;BME280;11490;42.726;23.268;2023-04-15T04:48:34;94588.41;;;8.46;87.81
22647;BME280;11490;42.726;23.268;2023-04-15T04:51:00;94584.00;;;8.68;86.36
22647;BME280;11490;42.726;23.268;2023-04-15T04:53:26;94571.84;;;8.72;86.40
22647;BME280;11490;42.726;23.268;2023-04-15T04:55:52;94594.19;;;9.05;84.97
22647;BME280;11490;42.726;23.268;2023-04-15T04:58:17;94592.78;;;9.02;84.77
22647;BME280;11490;42.726;23.268;2023-04-15T05:00:43;94592.84;;;9.24;83.60
22647;BME280;11490;42.726;23.268;2023-04-15T05:03:08;94594.53;;;9.30;82.63
22647;BME280;11490;42.726;23.268;2023-04-15T05:05:34;94596.03;;;9.59;82.50
22647;BME280;11490;42.726;23.268;2023-04-15T05:08:01;94608.47;;;9.37;83.95
22647;BME280;11490;42.726;23.268;2023-04-15T05:10:26;94592.16;;;9.50;81.28
22647;BME280;11490;42.726;23.268;2023-04-15T05:12:52;94610.00;;;9.72;81.68
22647;BME280;11490;42.726;23.268;2023-04-15T05:15:17;94619.66;;;9.78;82.09
22647;BME280;11490;42.726;23.268;2023-04-15T05:17:43;94633.44;;;10.13;80.67
22647;BME280;11490;42.726;23.268;2023-04-15T05:20:08;94626.28;;;10.35;78.61
22647;BME280;11490;42.726;23.268;2023-04-15T05:22:34;94635.72;;;10.21;78.93
22647;BME280;11490;42.726;23.268;2023-04-15T05:25:00;94633.41;;;10.57;79.04
22647;BME280;11490;42.726;23.268;2023-04-15T05:27:25;94630.16;;;10.50;77.60
22647;BME280;11490;42.726;23.268;2023-04-15T05:29:50;94626.72;;;10.27;79.43
22647;BME280;11490;42.726;23.268;2023-04-15T05:32:16;94622.00;;;10.93;76.27
22647;BME280;11490;42.726;23.268;2023-04-15T05:34:41;94632.56;;;11.10;76.56
22647;BME280;11490;42.726;23.268;2023-04-15T05:37:07;94637.22;;;11.25;74.02
22647;BME280;11490;42.726;23.268;2023-04-15T05:39:32;94627.34;;;10.93;76.25
22647;BME280;11490;42.726;23.268;2023-04-15T05:41:58;94632.44;;;11.27;75.48
22647;BME280;11490;42.726;23.268;2023-04-15T05:44:24;94631.59;;;11.63;72.51
22647;BME280;11490;42.726;23.268;2023-04-15T05:46:50;94630.44;;;11.49;76.01
22647;BME280;11490;42.726;23.268;2023-04-15T05:49:15;94638.97;;;12.45;72.11
22647;BME280;11490;42.726;23.268;2023-04-15T05:51:40;94643.09;;;13.08;69.52
22647;BME280;11490;42.726;23.268;2023-04-15T05:54:06;94643.94;;;13.19;70.42
22647;BME280;11490;42.726;23.268;2023-04-15T05:56:31;94633.59;;;14.17;64.50
22647;BME280;11490;42.726;23.268;2023-04-15T05:58:57;94655.03;;;14.27;64.03
22647;BME280;11490;42.726;23.268;2023-04-15T06:01:22;94654.19;;;14.47;61.06
22647;BME280;11490;42.726;23.268;2023-04-15T06:03:48;94646.63;;;13.55;63.00
22647;BME280;11490;42.726;23.268;2023-04-15T06:06:13;94656.00;;;13.37;65.09
22647;BME280;11490;42.726;23.268;2023-04-15T06:08:40;94646.78;;;14.73;62.48
22647;BME280;11490;42.726;23.268;2023-04-15T06:11:05;94640.63;;;15.17;59.92
22647;BME280;11490;42.726;23.268;2023-04-15T06:13:31;94654.34;;;16.54;55.44
22647;BME280;11490;42.726;23.268;2023-04-15T06:15:56;94664.91;;;17.12;53.68
22647;BME280;11490;42.726;23.268;2023-04-15T06:18:22;94664.81;;;17.55;53.85
22647;BME280;11490;42.726;23.268;2023-04-15T06:20:48;94671.09;;;18.29;49.46
22647;BME280;11490;42.726;23.268;2023-04-15T06:23:13;94669.72;;;18.59;48.34
22647;BME280;11490;42.726;23.268;2023-04-15T06:25:38;94677.78;;;18.18;48.34
22647;BME280;11490;42.726;23.268;2023-04-15T06:28:04;94677.34;;;18.57;49.15
22647;BME280;11490;42.726;23.268;2023-04-15T06:30:29;94688.41;;;18.55;50.02
22647;BME280;11490;42.726;23.268;2023-04-15T06:32:55;94684.81;;;17.86;50.70
22647;BME280;11490;42.726;23.268;2023-04-15T06:35:20;94686.81;;;17.06;54.04
22647;BME280;11490;42.726;23.268;2023-04-15T06:37:46;94685.22;;;17.42;54.02
22647;BME280;11490;42.726;23.268;2023-04-15T06:40:11;94697.88;;;16.85;56.38
22647;BME280;11490;42.726;23.268;2023-04-15T06:42:37;94692.56;;;17.74;54.41
22647;BME280;11490;42.726;23.268;2023-04-15T06:45:03;94692.94;;;16.21;56.12
22647;BME280;11490;42.726;23.268;2023-04-15T06:47:28;94685.84;;;16.54;58.69
22647;BME280;11490;42.726;23.268;2023-04-15T06:49:54;94691.59;;;17.33;53.98
22647;BME280;11490;42.726;23.268;2023-04-15T06:52:19;94692.25;;;16.58;55.71
22647;BME280;11490;42.726;23.268;2023-04-15T06:54:45;94689.59;;;17.38;54.43
22647;BME280;11490;42.726;23.268;2023-04-15T06:57:10;94696.38;;;17.36;53.83
22647;BME280;11490;42.726;23.268;2023-04-15T06:59:36;94688.28;;;17.36;53.95
22647;BME280;11490;42.726;23.268;2023-04-15T07:02:01;94671.91;;;17.13;55.99
22647;BME280;11490;42.726;23.268;2023-04-15T07:04:27;94676.28;;;17.09;55.87
22647;BME280;11490;42.726;23.268;2023-04-15T07:06:53;94685.66;;;17.30;54.86
22647;BME280;11490;42.726;23.268;2023-04-15T07:09:20;94682.28;;;16.82;54.70
22647;BME280;11490;42.726;23.268;2023-04-15T07:11:46;94671.44;;;16.69;56.41
22647;BME280;11490;42.726;23.268;2023-04-15T07:14:11;94671.22;;;16.41;58.02
22647;BME280;11490;42.726;23.268;2023-04-15T07:16:37;94673.50;;;16.77;56.95
22647;BME280;11490;42.726;23.268;2023-04-15T07:19:02;94674.81;;;16.79;55.90
22647;BME280;11490;42.726;23.268;2023-04-15T07:21:28;94673.13;;;17.21;55.90
22647;BME280;11490;42.726;23.268;2023-04-15T07:23:53;94663.69;;;16.86;58.26
22647;BME280;11490;42.726;23.268;2023-04-15T07:26:22;94680.59;;;17.10;53.35
22647;BME280;11490;42.726;23.268;2023-04-15T07:28:48;94661.56;;;16.83;56.71
22647;BME280;11490;42.726;23.268;2023-04-15T07:31:14;94679.63;;;17.01;56.34
22647;BME280;11490;42.726;23.268;2023-04-15T07:33:41;94675.78;;;16.65;55.50
22647;BME280;11490;42.726;23.268;2023-04-15T07:36:06;94679.22;;;16.70;58.88
22647;BME280;11490;42.726;23.268;2023-04-15T07:38:32;94682.69;;;17.13;55.24
22647;BME280;11490;42.726;23.268;2023-04-15T07:40:58;94656.25;;;17.15;53.98
22647;BME280;11490;42.726;23.268;2023-04-15T07:46:47;94667.09;;;17.48;52.07
22647;BME280;11490;42.726;23.268;2023-04-15T07:49:15;94695.78;;;17.76;51.71
22647;BME280;11490;42.726;23.268;2023-04-15T07:51:43;94684.25;;;17.52;50.62
22647;BME280;11490;42.726;23.268;2023-04-15T07:54:08;94665.53;;;17.79;52.48
22647;BME280;11490;42.726;23.268;2023-04-15T07:56:34;94687.66;;;18.08;48.07
22647;BME280;11490;42.726;23.268;2023-04-15T07:58:59;94705.88;;;18.17;46.97
22647;BME280;11490;42.726;23.268;2023-04-15T08:01:26;94684.00;;;18.18;51.65
22647;BME280;11490;42.726;23.268;2023-04-15T08:03:52;94711.88;;;17.44;50.51
22647;BME280;11490;42.726;23.268;2023-04-15T08:06:17;94700.31;;;18.40;48.60
22647;BME280;11490;42.726;23.268;2023-04-15T08:08:42;94717.66;;;18.21;44.76
22647;BME280;11490;42.726;23.268;2023-04-15T08:11:08;94707.50;;;18.18;42.22
22647;BME280;11490;42.726;23.268;2023-04-15T08:13:35;94714.91;;;18.26;43.05
22647;BME280;11490;42.726;23.268;2023-04-15T08:18:38;94718.94;;;18.42;40.98
22647;BME280;11490;42.726;23.268;2023-04-15T08:21:04;94689.19;;;18.15;41.24
22647;BME280;11490;42.726;23.268;2023-04-15T08:23:30;94703.34;;;18.66;42.19
22647;BME280;11490;42.726;23.268;2023-04-15T08:25:56;94696.53;;;18.55;41.70
22647;BME280;11490;42.726;23.268;2023-04-15T08:28:21;94706.78;;;18.58;40.52
22647;BME280;11490;42.726;23.268;2023-04-15T08:30:47;94703.50;;;18.29;39.63
22647;BME280;11490;42.726;23.268;2023-04-15T08:33:12;94695.97;;;18.58;40.29
22647;BME280;11490;42.726;23.268;2023-04-15T08:35:37;94690.34;;;18.68;39.07
22647;BME280;11490;42.726;23.268;2023-04-15T08:38:03;94697.59;;;18.27;39.55
22647;BME280;11490;42.726;23.268;2023-04-15T08:40:42;94670.28;;;18.15;41.15
22647;BME280;11490;42.726;23.268;2023-04-15T08:43:10;94656.69;;;18.20;43.32
22647;BME280;11490;42.726;23.268;2023-04-15T08:45:40;94682.09;;;18.46;41.07
22647;BME280;11490;42.726;23.268;2023-04-15T08:48:06;94660.69;;;18.91;38.75
22647;BME280;11490;42.726;23.268;2023-04-15T08:50:34;94654.31;;;18.59;38.60
22647;BME280;11490;42.726;23.268;2023-04-15T08:52:59;94679.94;;;18.75;38.83
22647;BME280;11490;42.726;23.268;2023-04-15T08:55:28;94678.13;;;18.84;38.68
22647;BME280;11490;42.726;23.268;2023-04-15T08:57:55;94675.66;;;19.24;40.30
22647;BME280;11490;42.726;23.268;2023-04-15T09:00:21;94678.47;;;19.55;37.88
22647;BME280;11490;42.726;23.268;2023-04-15T09:02:46;94663.94;;;18.65;35.73
22647;BME280;11490;42.726;23.268;2023-04-15T09:05:12;94656.22;;;18.72;38.22
22647;BME280;11490;42.726;23.268;2023-04-15T09:07:38;94664.53;;;19.26;37.46
22647;BME280;11490;42.726;23.268;2023-04-15T09:10:04;94691.03;;;19.37;38.58
22647;BME280;11490;42.726;23.268;2023-04-15T09:12:29;94650.22;;;19.25;36.90
22647;BME280;11490;42.726;23.268;2023-04-15T09:14:56;94639.66;;;19.59;37.59
22647;BME280;11490;42.726;23.268;2023-04-15T09:17:21;94681.94;;;20.22;36.93
22647;BME280;11490;42.726;23.268;2023-04-15T09:19:48;94661.69;;;19.89;34.98
22647;BME280;11490;42.726;23.268;2023-04-15T09:22:32;94649.25;;;19.88;33.80
22647;BME280;11490;42.726;23.268;2023-04-15T09:24:58;94656.16;;;19.72;33.03
22647;BME280;11490;42.726;23.268;2023-04-15T09:27:23;94620.09;;;19.18;34.75
22647;BME280;11490;42.726;23.268;2023-04-15T09:29:49;94650.13;;;19.75;35.58
22647;BME280;11490;42.726;23.268;2023-04-15T09:32:17;94646.16;;;19.36;34.95
22647;BME280;11490;42.726;23.268;2023-04-15T09:34:42;94649.66;;;19.37;32.46
22647;BME280;11490;42.726;23.268;2023-04-15T09:37:08;94633.22;;;19.11;33.37
22647;BME280;11490;42.726;23.268;2023-04-15T09:39:48;94663.59;;;19.30;33.33
22647;BME280;11490;42.726;23.268;2023-04-15T09:42:15;94657.59;;;19.33;33.35
22647;BME280;11490;42.726;23.268;2023-04-15T09:44:42;94637.63;;;19.07;33.16
22647;BME280;11490;42.726;23.268;2023-04-15T09:47:29;94654.63;;;19.21;34.13
22647;BME280;11490;42.726;23.268;2023-04-15T09:49:55;94638.75;;;19.28;34.49
22647;BME280;11490;42.726;23.268;2023-04-15T09:52:21;94663.78;;;19.47;33.11
22647;BME280;11490;42.726;23.268;2023-04-15T09:54:47;94665.75;;;19.55;32.14
22647;BME280;11490;42.726;23.268;2023-04-15T09:57:12;94635.09;;;18.74;33.55
22647;BME280;11490;42.726;23.268;2023-04-15T09:59:37;94667.91;;;18.81;33.50
22647;BME280;11490;42.726;23.268;2023-04-15T10:02:04;94647.50;;;18.75;34.93
22647;BME280;11490;42.726;23.268;2023-04-15T10:04:34;94663.69;;;19.03;35.69
22647;BME280;11490;42.726;23.268;2023-04-15T10:07:02;94632.63;;;18.64;32.98
22647;BME280;11490;42.726;23.268;2023-04-15T10:09:29;94656.31;;;18.67;32.93
22647;BME280;11490;42.726;23.268;2023-04-15T10:11:55;94659.56;;;19.05;33.23
22647;BME280;11490;42.726;23.268;2023-04-15T10:14:20;94644.38;;;18.96;31.86
22647;BME280;11490;42.726;23.268;2023-04-15T10:16:46;94657.28;;;18.99;29.96
22647;BME280;11490;42.726;23.268;2023-04-15T10:19:14;94639.91;;;18.77;31.74
22647;BME280;11490;42.726;23.268;2023-04-15T10:21:49;94606.88;;;18.12;33.39
22647;BME280;11490;42.726;23.268;2023-04-15T10:24:15;94603.81;;;18.32;34.34
22647;BME280;11490;42.726;23.268;2023-04-15T10:26:41;94632.25;;;18.57;34.31
22647;BME280;11490;42.726;23.268;2023-04-15T10:29:08;94630.81;;;18.46;32.94
22647;BME280;11490;42.726;23.268;2023-04-15T10:31:35;94610.22;;;18.50;32.54
22647;BME280;11490;42.726;23.268;2023-04-15T10:34:03;94635.69;;;18.85;31.47
22647;BME280;11490;42.726;23.268;2023-04-15T10:36:31;94639.47;;;18.98;32.26
22647;BME280;11490;42.726;23.268;2023-04-15T10:38:56;94637.38;;;19.31;31.85
22647;BME280;11490;42.726;23.268;2023-04-15T10:41:26;94636.97;;;19.59;32.61
22647;BME280;11490;42.726;23.268;2023-04-15T10:46:41;94614.38;;;19.86;32.03
22647;BME280;11490;42.726;23.268;2023-04-15T10:49:12;94637.41;;;20.06;31.78
22647;BME280;11490;42.726;23.268;2023-04-15T10:51:40;94639.75;;;19.99;32.54
22647;BME280;11490;42.726;23.268;2023-04-15T10:54:12;94611.47;;;20.05;32.18
22647;BME280;11490;42.726;23.268;2023-04-15T10:56:41;94613.09;;;19.84;32.66
22647;BME280;11490;42.726;23.268;2023-04-15T10:59:06;94617.28;;;19.68;30.88
22647;BME280;11490;42.726;23.268;2023-04-15T11:01:52;94613.97;;;19.71;32.04
22647;BME280;11490;42.726;23.268;2023-04-15T11:04:53;94651.09;;;20.01;32.78
22647;BME280;11490;42.726;23.268;2023-04-15T11:12:52;94600.66;;;20.14;33.25
22647;BME280;11490;42.726;23.268;2023-04-15T11:15:31;94635.13;;;20.30;31.94
22647;BME280;11490;42.726;23.268;2023-04-15T11:18:21;94581.25;;;19.81;32.77
22647;BME280;11490;42.726;23.268;2023-04-15T11:20:51;94625.50;;;19.85;32.81
22647;BME280;11490;42.726;23.268;2023-04-15T11:23:26;94621.25;;;19.92;34.66
22647;BME280;11490;42.726;23.268;2023-04-15T11:25:54;94590.22;;;19.45;33.55
22647;BME280;11490;42.726;23.268;2023-04-15T11:28:19;94575.75;;;19.19;32.38
22647;BME280;11490;42.726;23.268;2023-04-15T11:30:45;94599.72;;;19.34;33.45
22647;BME280;11490;42.726;23.268;2023-04-15T11:33:11;94603.16;;;19.48;31.96
22647;BME280;11490;42.726;23.268;2023-04-15T11:35:40;94595.69;;;19.32;33.16
22647;BME280;11490;42.726;23.268;2023-04-15T11:38:10;94569.09;;;19.25;31.68
22647;BME280;11490;42.726;23.268;2023-04-15T11:40:37;94552.50;;;19.63;34.91
22647;BME280;11490;42.726;23.268;2023-04-15T11:43:30;94606.06;;;19.83;33.18
22647;BME280;11490;42.726;23.268;2023-04-15T11:46:00;94578.94;;;19.66;32.56
22647;BME280;11490;42.726;23.268;2023-04-15T11:48:31;94600.81;;;19.78;31.98
22647;BME280;11490;42.726;23.268;2023-04-15T11:51:02;94601.00;;;19.90;32.95
22647;BME280;11490;42.726;23.268;2023-04-15T11:53:38;94608.13;;;19.77;30.58
22647;BME280;11490;42.726;23.268;2023-04-15T11:56:05;94578.53;;;19.36;29.87
22647;BME280;11490;42.726;23.268;2023-04-15T11:58:33;94595.53;;;19.73;32.00
22647;BME280;11490;42.726;23.268;2023-04-15T12:01:00;94587.47;;;19.37;30.71
22647;BME280;11490;42.726;23.268;2023-04-15T12:03:30;94589.66;;;19.48;31.80
22647;BME280;11490;42.726;23.268;2023-04-15T12:06:16;94602.00;;;19.63;33.26
22647;BME280;11490;42.726;23.268;2023-04-15T12:08:55;94591.44;;;19.84;32.19
22647;BME280;11490;42.726;23.268;2023-04-15T12:13:57;94565.00;;;19.81;31.66
22647;BME280;11490;42.726;23.268;2023-04-15T12:16:24;94605.81;;;20.24;29.56
22647;BME280;11490;42.726;23.268;2023-04-15T12:18:53;94586.38;;;19.91;28.60
22647;BME280;11490;42.726;23.268;2023-04-15T12:21:25;94594.38;;;19.96;28.88
22647;BME280;11490;42.726;23.268;2023-04-15T12:23:52;94591.84;;;19.99;28.36
22647;BME280;11490;42.726;23.268;2023-04-15T12:26:26;94611.97;;;19.85;27.37
22647;BME280;11490;42.726;23.268;2023-04-15T12:29:00;94601.06;;;19.68;28.66
22647;BME280;11490;42.726;23.268;2023-04-15T12:31:26;94592.56;;;19.60;29.39
22647;BME280;11490;42.726;23.268;2023-04-15T12:33:54;94606.59;;;19.63;31.56
22647;BME280;11490;42.726;23.268;2023-04-15T12:36:20;94579.03;;;19.38;31.90
22647;BME280;11490;42.726;23.268;2023-04-15T12:38:45;94598.34;;;19.68;32.64
22647;BME280;11490;42.726;23.268;2023-04-15T12:41:11;94593.94;;;19.72;33.85
22647;BME280;11490;42.726;23.268;2023-04-15T12:43:36;94613.97;;;19.71;31.63
22647;BME280;11490;42.726;23.268;2023-04-15T12:46:02;94620.34;;;19.75;30.72
22647;BME280;11490;42.726;23.268;2023-04-15T12:48:27;94606.97;;;19.70;32.75
22647;BME280;11490;42.726;23.268;2023-04-15T12:50:52;94603.25;;;19.88;30.56
22647;BME280;11490;42.726;23.268;2023-04-15T12:53:19;94613.78;;;19.89;30.42
22647;BME280;11490;42.726;23.268;2023-04-15T12:55:44;94610.72;;;19.91;29.55
22647;BME280;11490;42.726;23.268;2023-04-15T12:58:10;94610.06;;;20.16;30.22
22647;BME280;11490;42.726;23.268;2023-04-15T13:00:36;94612.47;;;19.87;28.76
22647;BME280;11490;42.726;23.268;2023-04-15T13:03:02;94619.44;;;20.10;29.01
22647;BME280;11490;42.726;23.268;2023-04-15T13:05:27;94601.34;;;19.88;29.20
22647;BME280;11490;42.726;23.268;2023-04-15T13:07:52;94617.31;;;19.98;29.71
22647;BME280;11490;42.726;23.268;2023-04-15T13:10:18;94597.03;;;19.56;29.84